sensor_id;sensor_type;location;lat;lon;timestamp;temperature;humidity
65826;DHT22;52586;-43.152;172.732;2023-07-29T00:00:51;12.50;59.40
65826;DHT22;52586;-43.152;172.732;2023-07-29T00:03:23;12.50;59.40
65826;DHT22;52586;-43.152;172.732;2023-07-29T00:05:54;12.50;59.40
65826;DHT22;52586;-43.152;172.732;2023-07-29T00:08:24;12.50;59.50
65826;DHT22;52586;-43.152;172.732;2023-07-29T00:10:57;12.50;59.50
65826;DHT22;52586;-43.152;172.732;2023-07-29T00:13:27;12.60;59.70
65826;DHT22;52586;-43.152;172.732;2023-07-29T00:15:58;12.60;59.70
65826;DHT22;52586;-43.152;172.732;2023-07-29T00:18:29;12.60;59.70
65826;DHT22;52586;-43.152;172.732;2023-07-29T00:20:59;12.60;59.70
65826;DHT22;52586;-43.152;172.732;2023-07-29T00:23:30;12.70;59.70
65826;DHT22;52586;-43.152;172.732;2023-07-29T00:26:02;12.70;59.70
65826;DHT22;52586;-43.152;172.732;2023-07-29T00:28:33;12.70;60.30
65826;DHT22;52586;-43.152;172.732;2023-07-29T00:31:04;12.70;59.80
65826;DHT22;52586;-43.152;172.732;2023-07-29T00:33:34;12.80;59.90
65826;DHT22;52586;-43.152;172.732;2023-07-29T00:36:05;12.80;59.90
65826;DHT22;52586;-43.152;172.732;2023-07-29T00:38:36;12.80;59.90
65826;DHT22;52586;-43.152;172.732;2023-07-29T00:41:09;12.80;59.90
65826;DHT22;52586;-43.152;172.732;2023-07-29T00:43:41;12.90;60.00
65826;DHT22;52586;-43.152;172.732;2023-07-29T00:46:12;12.90;60.10
65826;DHT22;52586;-43.152;172.732;2023-07-29T00:48:42;12.90;60.10
65826;DHT22;52586;-43.152;172.732;2023-07-29T00:51:13;12.90;60.10
65826;DHT22;52586;-43.152;172.732;2023-07-29T00:53:44;12.90;60.00
65826;DHT22;52586;-43.152;172.732;2023-07-29T00:56:16;13.00;60.00
65826;DHT22;52586;-43.152;172.732;2023-07-29T00:58:47;13.00;60.00
65826;DHT22;52586;-43.152;172.732;2023-07-29T01:01:19;13.00;60.00
65826;DHT22;52586;-43.152;172.732;2023-07-29T01:03:49;13.00;59.90
65826;DHT22;52586;-43.152;172.732;2023-07-29T01:06:27;13.10;60.00
65826;DHT22;52586;-43.152;172.732;2023-07-29T01:09:02;13.10;59.90
65826;DHT22;52586;-43.152;172.732;2023-07-29T01:11:41;13.10;60.00
65826;DHT22;52586;-43.152;172.732;2023-07-29T01:14:21;13.10;60.10
65826;DHT22;52586;-43.152;172.732;2023-07-29T01:16:55;13.10;60.10
65826;DHT22;52586;-43.152;172.732;2023-07-29T01:19:42;13.20;60.10
65826;DHT22;52586;-43.152;172.732;2023-07-29T01:22:14;13.20;60.10
65826;DHT22;52586;-43.152;172.732;2023-07-29T01:24:48;13.30;60.20
65826;DHT22;52586;-43.152;172.732;2023-07-29T01:27:18;13.30;60.20
65826;DHT22;52586;-43.152;172.732;2023-07-29T01:29:49;13.30;60.10
65826;DHT22;52586;-43.152;172.732;2023-07-29T01:32:25;13.30;60.00
65826;DHT22;52586;-43.152;172.732;2023-07-29T01:35:03;13.30;60.00
65826;DHT22;52586;-43.152;172.732;2023-07-29T01:37:35;13.30;60.00
65826;DHT22;52586;-43.152;172.732;2023-07-29T01:40:10;13.30;60.00
65826;DHT22;52586;-43.152;172.732;2023-07-29T01:42:41;13.40;60.00
65826;DHT22;52586;-43.152;172.732;2023-07-29T01:45:13;13.40;60.00
65826;DHT22;52586;-43.152;172.732;2023-07-29T01:47:43;13.40;60.00
65826;DHT22;52586;-43.152;172.732;2023-07-29T01:50:14;13.40;60.10
65826;DHT22;52586;-43.152;172.732;2023-07-29T01:52:45;13.40;60.00
65826;DHT22;52586;-43.152;172.732;2023-07-29T01:55:17;13.50;60.00
65826;DHT22;52586;-43.152;172.732;2023-07-29T01:57:48;13.50;60.30
65826;DHT22;52586;-43.152;172.732;2023-07-29T02:00:20;13.50;60.40
65826;DHT22;52586;-43.152;172.732;2023-07-29T02:02:50;13.60;60.60
65826;DHT22;52586;-43.152;172.732;2023-07-29T02:05:21;13.60;60.50
65826;DHT22;52586;-43.152;172.732;2023-07-29T02:07:51;13.60;60.30
65826;DHT22;52586;-43.152;172.732;2023-07-29T02:10:24;13.70;60.20
65826;DHT22;52586;-43.152;172.732;2023-07-29T02:12:55;13.70;60.10
65826;DHT22;52586;-43.152;172.732;2023-07-29T02:15:25;13.80;60.80
65826;DHT22;52586;-43.152;172.732;2023-07-29T02:17:56;13.80;59.90
65826;DHT22;52586;-43.152;172.732;2023-07-29T02:20:26;13.80;59.90
65826;DHT22;52586;-43.152;172.732;2023-07-29T02:22:57;13.80;59.80
65826;DHT22;52586;-43.152;172.732;2023-07-29T02:25:30;13.90;59.80
65826;DHT22;52586;-43.152;172.732;2023-07-29T02:28:00;13.90;59.80
65826;DHT22;52586;-43.152;172.732;2023-07-29T02:30:31;13.90;59.70
65826;DHT22;52586;-43.152;172.732;2023-07-29T02:33:01;13.90;59.70
65826;DHT22;52586;-43.152;172.732;2023-07-29T02:35:32;14.00;59.70
65826;DHT22;52586;-43.152;172.732;2023-07-29T02:38:03;14.00;59.60
65826;DHT22;52586;-43.152;172.732;2023-07-29T02:40:36;14.00;59.50
65826;DHT22;52586;-43.152;172.732;2023-07-29T02:43:08;14.10;59.60
65826;DHT22;52586;-43.152;172.732;2023-07-29T02:45:38;14.10;59.50
65826;DHT22;52586;-43.152;172.732;2023-07-29T02:48:09;14.10;59.40
65826;DHT22;52586;-43.152;172.732;2023-07-29T02:50:39;14.10;59.40
65826;DHT22;52586;-43.152;172.732;2023-07-29T02:53:10;14.20;59.50
65826;DHT22;52586;-43.152;172.732;2023-07-29T02:55:43;14.20;59.40
65826;DHT22;52586;-43.152;172.732;2023-07-29T02:58:13;14.20;59.40
65826;DHT22;52586;-43.152;172.732;2023-07-29T03:00:44;14.30;59.40
65826;DHT22;52586;-43.152;172.732;2023-07-29T03:03:16;14.30;59.30
65826;DHT22;52586;-43.152;172.732;2023-07-29T03:05:47;14.30;59.30
65826;DHT22;52586;-43.152;172.732;2023-07-29T03:08:17;14.30;59.30
65826;DHT22;52586;-43.152;172.732;2023-07-29T03:10:50;14.40;59.30
65826;DHT22;52586;-43.152;172.732;2023-07-29T03:13:20;14.40;59.30
65826;DHT22;52586;-43.152;172.732;2023-07-29T03:15:51;14.40;59.20
65826;DHT22;52586;-43.152;172.732;2023-07-29T03:18:22;14.40;59.30
65826;DHT22;52586;-43.152;172.732;2023-07-29T03:20:52;14.50;59.30
65826;DHT22;52586;-43.152;172.732;2023-07-29T03:23:26;14.50;59.30
65826;DHT22;52586;-43.152;172.732;2023-07-29T03:25:58;14.50;59.30
65826;DHT22;52586;-43.152;172.732;2023-07-29T03:28:30;14.50;59.80
65826;DHT22;52586;-43.152;172.732;2023-07-29T03:31:00;14.60;59.20
65826;DHT22;52586;-43.152;172.732;2023-07-29T03:33:31;14.60;59.20
65826;DHT22;52586;-43.152;172.732;2023-07-29T03:36:02;14.60;59.10
65826;DHT22;52586;-43.152;172.732;2023-07-29T03:38:32;14.60;59.10
65826;DHT22;52586;-43.152;172.732;2023-07-29T03:41:09;14.70;59.10
65826;DHT22;52586;-43.152;172.732;2023-07-29T03:43:40;14.70;59.10
65826;DHT22;52586;-43.152;172.732;2023-07-29T03:46:10;14.70;59.00
65826;DHT22;52586;-43.152;172.732;2023-07-29T03:48:41;14.80;59.00
65826;DHT22;52586;-43.152;172.732;2023-07-29T03:51:12;14.80;59.00
65826;DHT22;52586;-43.152;172.732;2023-07-29T03:53:42;14.80;59.00
65826;DHT22;52586;-43.152;172.732;2023-07-29T03:56:15;14.80;58.90
65826;DHT22;52586;-43.152;172.732;2023-07-29T03:58:46;14.90;59.00
65826;DHT22;52586;-43.152;172.732;2023-07-29T04:01:17;14.90;58.90
65826;DHT22;52586;-43.152;172.732;2023-07-29T04:03:48;14.90;59.00
65826;DHT22;52586;-43.152;172.732;2023-07-29T04:06:19;14.90;58.90
65826;DHT22;52586;-43.152;172.732;2023-07-29T04:08:50;15.00;58.90
65826;DHT22;52586;-43.152;172.732;2023-07-29T04:11:23;15.00;58.90
65826;DHT22;52586;-43.152;172.732;2023-07-29T04:13:54;15.00;58.70
65826;DHT22;52586;-43.152;172.732;2023-07-29T04:16:24;15.10;58.70
65826;DHT22;52586;-43.152;172.732;2023-07-29T04:18:56;15.10;58.60
65826;DHT22;52586;-43.152;172.732;2023-07-29T04:21:26;15.10;58.60
65826;DHT22;52586;-43.152;172.732;2023-07-29T04:23:57;15.20;58.70
65826;DHT22;52586;-43.152;172.732;2023-07-29T04:26:30;15.20;58.60
65826;DHT22;52586;-43.152;172.732;2023-07-29T04:29:00;15.20;58.60
65826;DHT22;52586;-43.152;172.732;2023-07-29T04:31:31;15.30;58.60
65826;DHT22;52586;-43.152;172.732;2023-07-29T04:34:01;15.30;58.50
65826;DHT22;52586;-43.152;172.732;2023-07-29T04:36:32;15.30;58.50
65826;DHT22;52586;-43.152;172.732;2023-07-29T04:39:03;15.30;58.50
65826;DHT22;52586;-43.152;172.732;2023-07-29T04:41:35;15.40;58.40
65826;DHT22;52586;-43.152;172.732;2023-07-29T04:44:06;15.30;58.30
65826;DHT22;52586;-43.152;172.732;2023-07-29T04:46:37;15.40;58.30
65826;DHT22;52586;-43.152;172.732;2023-07-29T04:49:08;15.40;58.30
65826;DHT22;52586;-43.152;172.732;2023-07-29T04:51:39;15.40;58.30
65826;DHT22;52586;-43.152;172.732;2023-07-29T04:54:09;15.40;58.30
65826;DHT22;52586;-43.152;172.732;2023-07-29T04:56:42;15.40;58.30
65826;DHT22;52586;-43.152;172.732;2023-07-29T04:59:12;15.40;58.30
65826;DHT22;52586;-43.152;172.732;2023-07-29T05:01:43;15.40;58.30
65826;DHT22;52586;-43.152;172.732;2023-07-29T05:04:13;15.40;58.20
65826;DHT22;52586;-43.152;172.732;2023-07-29T05:06:44;15.40;58.20
65826;DHT22;52586;-43.152;172.732;2023-07-29T05:09:15;15.40;58.20
65826;DHT22;52586;-43.152;172.732;2023-07-29T05:11:48;15.40;58.10
65826;DHT22;52586;-43.152;172.732;2023-07-29T05:14:19;15.40;58.10
65826;DHT22;52586;-43.152;172.732;2023-07-29T05:16:49;15.40;58.70
65826;DHT22;52586;-43.152;172.732;2023-07-29T05:19:20;15.40;58.10
65826;DHT22;52586;-43.152;172.732;2023-07-29T05:21:51;15.40;58.00
65826;DHT22;52586;-43.152;172.732;2023-07-29T05:24:21;15.40;57.90
65826;DHT22;52586;-43.152;172.732;2023-07-29T05:26:54;15.40;58.00
65826;DHT22;52586;-43.152;172.732;2023-07-29T05:29:24;15.40;58.00
65826;DHT22;52586;-43.152;172.732;2023-07-29T05:31:55;15.40;58.00
65826;DHT22;52586;-43.152;172.732;2023-07-29T05:34:26;15.40;58.00
65826;DHT22;52586;-43.152;172.732;2023-07-29T05:36:57;15.40;57.90
65826;DHT22;52586;-43.152;172.732;2023-07-29T05:39:27;15.40;57.90
65826;DHT22;52586;-43.152;172.732;2023-07-29T05:42:00;15.40;57.80
65826;DHT22;52586;-43.152;172.732;2023-07-29T05:44:31;15.40;57.80
65826;DHT22;52586;-43.152;172.732;2023-07-29T05:47:02;15.40;57.60
65826;DHT22;52586;-43.152;172.732;2023-07-29T05:49:33;15.40;57.70
65826;DHT22;52586;-43.152;172.732;2023-07-29T05:52:03;15.40;57.60
65826;DHT22;52586;-43.152;172.732;2023-07-29T05:54:34;15.40;57.60
65826;DHT22;52586;-43.152;172.732;2023-07-29T05:57:07;15.40;57.60
65826;DHT22;52586;-43.152;172.732;2023-07-29T05:59:37;15.30;57.50
65826;DHT22;52586;-43.152;172.732;2023-07-29T06:02:08;15.30;57.60
65826;DHT22;52586;-43.152;172.732;2023-07-29T06:04:39;15.30;57.60
65826;DHT22;52586;-43.152;172.732;2023-07-29T06:07:09;15.30;57.60
65826;DHT22;52586;-43.152;172.732;2023-07-29T06:09:40;15.30;57.60
65826;DHT22;52586;-43.152;172.732;2023-07-29T06:12:13;15.20;57.60
65826;DHT22;52586;-43.152;172.732;2023-07-29T06:14:43;15.30;57.60
65826;DHT22;52586;-43.152;172.732;2023-07-29T06:17:14;15.20;57.60
65826;DHT22;52586;-43.152;172.732;2023-07-29T06:19:44;15.30;57.60
65826;DHT22;52586;-43.152;172.732;2023-07-29T06:22:15;15.20;57.60
65826;DHT22;52586;-43.152;172.732;2023-07-29T06:24:46;15.20;57.50
65826;DHT22;52586;-43.152;172.732;2023-07-29T06:27:18;15.20;57.50
65826;DHT22;52586;-43.152;172.732;2023-07-29T06:29:49;15.20;57.50
65826;DHT22;52586;-43.152;172.732;2023-07-29T06:32:19;15.20;57.50
65826;DHT22;52586;-43.152;172.732;2023-07-29T06:34:50;15.10;57.50
65826;DHT22;52586;-43.152;172.732;2023-07-29T06:37:22;15.20;57.50
65826;DHT22;52586;-43.152;172.732;2023-07-29T06:39:52;15.10;57.50
65826;DHT22;52586;-43.152;172.732;2023-07-29T06:42:28;15.10;57.50
65826;DHT22;52586;-43.152;172.732;2023-07-29T06:44:58;15.10;57.50
65826;DHT22;52586;-43.152;172.732;2023-07-29T06:47:29;15.10;57.50
65826;DHT22;52586;-43.152;172.732;2023-07-29T06:50:00;15.10;57.50
65826;DHT22;52586;-43.152;172.732;2023-07-29T06:52:30;15.10;57.50
65826;DHT22;52586;-43.152;172.732;2023-07-29T06:55:01;15.10;57.50
65826;DHT22;52586;-43.152;172.732;2023-07-29T06:57:34;15.10;57.50
65826;DHT22;52586;-43.152;172.732;2023-07-29T07:00:05;15.10;57.50
65826;DHT22;52586;-43.152;172.732;2023-07-29T07:02:36;15.10;57.50
65826;DHT22;52586;-43.152;172.732;2023-07-29T07:05:07;15.10;57.50
65826;DHT22;52586;-43.152;172.732;2023-07-29T07:07:38;15.00;57.50
65826;DHT22;52586;-43.152;172.732;2023-07-29T07:10:09;15.00;57.50
65826;DHT22;52586;-43.152;172.732;2023-07-29T07:12:41;15.00;57.40
65826;DHT22;52586;-43.152;172.732;2023-07-29T07:15:12;15.00;57.50
65826;DHT22;52586;-43.152;172.732;2023-07-29T07:17:42;15.00;57.40
65826;DHT22;52586;-43.152;172.732;2023-07-29T07:20:13;15.00;57.40
65826;DHT22;52586;-43.152;172.732;2023-07-29T07:22:44;15.00;57.40
65826;DHT22;52586;-43.152;172.732;2023-07-29T07:25:14;14.90;57.40
65826;DHT22;52586;-43.152;172.732;2023-07-29T07:27:47;14.90;57.40
65826;DHT22;52586;-43.152;172.732;2023-07-29T07:30:18;14.90;57.40
65826;DHT22;52586;-43.152;172.732;2023-07-29T07:32:49;14.90;57.30
65826;DHT22;52586;-43.152;172.732;2023-07-29T07:35:19;14.90;57.40
65826;DHT22;52586;-43.152;172.732;2023-07-29T07:37:50;14.90;57.40
65826;DHT22;52586;-43.152;172.732;2023-07-29T07:40:21;14.90;57.40
65826;DHT22;52586;-43.152;172.732;2023-07-29T07:42:53;14.90;57.40
65826;DHT22;52586;-43.152;172.732;2023-07-29T07:45:24;14.90;57.40
65826;DHT22;52586;-43.152;172.732;2023-07-29T07:47:56;14.80;57.40
65826;DHT22;52586;-43.152;172.732;2023-07-29T07:50:29;14.80;57.40
65826;DHT22;52586;-43.152;172.732;2023-07-29T07:52:59;14.80;57.40
65826;DHT22;52586;-43.152;172.732;2023-07-29T07:55:30;14.80;57.40
65826;DHT22;52586;-43.152;172.732;2023-07-29T07:58:02;14.80;57.40
65826;DHT22;52586;-43.152;172.732;2023-07-29T08:00:33;14.80;57.40
65826;DHT22;52586;-43.152;172.732;2023-07-29T08:03:03;14.80;57.40
65826;DHT22;52586;-43.152;172.732;2023-07-29T08:05:34;14.70;57.90
65826;DHT22;52586;-43.152;172.732;2023-07-29T08:08:05;14.70;57.40
65826;DHT22;52586;-43.152;172.732;2023-07-29T08:10:35;14.70;57.40
65826;DHT22;52586;-43.152;172.732;2023-07-29T08:13:08;14.70;57.40
65826;DHT22;52586;-43.152;172.732;2023-07-29T08:15:38;14.70;57.40
65826;DHT22;52586;-43.152;172.732;2023-07-29T08:18:09;14.70;57.40
65826;DHT22;52586;-43.152;172.732;2023-07-29T08:20:40;14.70;57.40
65826;DHT22;52586;-43.152;172.732;2023-07-29T08:23:10;14.70;57.40
65826;DHT22;52586;-43.152;172.732;2023-07-29T08:25:41;14.70;57.40
65826;DHT22;52586;-43.152;172.732;2023-07-29T08:28:13;14.70;57.40
65826;DHT22;52586;-43.152;172.732;2023-07-29T08:30:44;14.60;57.40
65826;DHT22;52586;-43.152;172.732;2023-07-29T08:33:15;14.60;57.40
65826;DHT22;52586;-43.152;172.732;2023-07-29T08:35:45;14.60;57.40
65826;DHT22;52586;-43.152;172.732;2023-07-29T08:38:16;14.60;57.40
65826;DHT22;52586;-43.152;172.732;2023-07-29T08:41:08;14.60;57.40
65826;DHT22;52586;-43.152;172.732;2023-07-29T08:43:47;14.50;57.40
65826;DHT22;52586;-43.152;172.732;2023-07-29T08:46:20;14.50;57.40
65826;DHT22;52586;-43.152;172.732;2023-07-29T08:48:52;14.50;57.40
65826;DHT22;52586;-43.152;172.732;2023-07-29T08:51:24;14.50;57.40
65826;DHT22;52586;-43.152;172.732;2023-07-29T08:53:55;14.50;57.40
65826;DHT22;52586;-43.152;172.732;2023-07-29T08:56:26;14.50;57.40
65826;DHT22;52586;-43.152;172.732;2023-07-29T08:59:00;14.50;57.40
65826;DHT22;52586;-43.152;172.732;2023-07-29T09:01:32;14.50;57.40
65826;DHT22;52586;-43.152;172.732;2023-07-29T09:04:03;14.50;57.40
65826;DHT22;52586;-43.152;172.732;2023-07-29T09:06:35;14.50;57.40
65826;DHT22;52586;-43.152;172.732;2023-07-29T09:09:07;14.50;57.50
65826;DHT22;52586;-43.152;172.732;2023-07-29T09:11:38;14.50;57.50
65826;DHT22;52586;-43.152;172.732;2023-07-29T09:14:11;14.50;57.50
65826;DHT22;52586;-43.152;172.732;2023-07-29T09:16:42;14.40;57.50
65826;DHT22;52586;-43.152;172.732;2023-07-29T09:19:13;14.40;57.50
65826;DHT22;52586;-43.152;172.732;2023-07-29T09:21:47;14.40;57.50
65826;DHT22;52586;-43.152;172.732;2023-07-29T09:24:18;14.40;57.50
65826;DHT22;52586;-43.152;172.732;2023-07-29T09:26:50;14.40;57.50
65826;DHT22;52586;-43.152;172.732;2023-07-29T09:29:27;14.40;57.50
65826;DHT22;52586;-43.152;172.732;2023-07-29T09:32:19;14.40;57.50
65826;DHT22;52586;-43.152;172.732;2023-07-29T09:34:49;14.40;57.50
65826;DHT22;52586;-43.152;172.732;2023-07-29T09:37:23;14.40;57.40
65826;DHT22;52586;-43.152;172.732;2023-07-29T09:39:54;14.40;57.50
65826;DHT22;52586;-43.152;172.732;2023-07-29T09:42:24;14.40;57.50
65826;DHT22;52586;-43.152;172.732;2023-07-29T09:44:57;14.40;57.50
65826;DHT22;52586;-43.152;172.732;2023-07-29T09:47:28;14.40;57.50
65826;DHT22;52586;-43.152;172.732;2023-07-29T09:50:00;14.30;57.50
65826;DHT22;52586;-43.152;172.732;2023-07-29T09:52:31;14.30;57.50
65826;DHT22;52586;-43.152;172.732;2023-07-29T09:55:03;14.30;57.50
65826;DHT22;52586;-43.152;172.732;2023-07-29T09:57:35;14.30;57.50
65826;DHT22;52586;-43.152;172.732;2023-07-29T10:00:11;14.30;57.50
65826;DHT22;52586;-43.152;172.732;2023-07-29T10:02:43;14.30;57.50
65826;DHT22;52586;-43.152;172.732;2023-07-29T10:05:13;14.30;57.50
65826;DHT22;52586;-43.152;172.732;2023-07-29T10:07:45;14.30;57.50
65826;DHT22;52586;-43.152;172.732;2023-07-29T10:10:17;14.30;57.50
65826;DHT22;52586;-43.152;172.732;2023-07-29T10:12:48;14.30;57.50
65826;DHT22;52586;-43.152;172.732;2023-07-29T10:15:21;14.20;57.40
65826;DHT22;52586;-43.152;172.732;2023-07-29T10:17:53;14.20;57.40
65826;DHT22;52586;-43.152;172.732;2023-07-29T10:20:24;14.20;57.40
65826;DHT22;52586;-43.152;172.732;2023-07-29T10:22:58;14.20;57.40
65826;DHT22;52586;-43.152;172.732;2023-07-29T10:25:35;14.20;57.40
65826;DHT22;52586;-43.152;172.732;2023-07-29T10:28:09;14.20;57.40
65826;DHT22;52586;-43.152;172.732;2023-07-29T10:30:44;14.20;57.40
65826;DHT22;52586;-43.152;172.732;2023-07-29T10:33:15;14.20;57.40
65826;DHT22;52586;-43.152;172.732;2023-07-29T10:35:45;14.20;57.40
65826;DHT22;52586;-43.152;172.732;2023-07-29T10:38:17;14.20;57.40
65826;DHT22;52586;-43.152;172.732;2023-07-29T10:40:50;14.20;57.40
65826;DHT22;52586;-43.152;172.732;2023-07-29T10:43:27;14.20;57.40
65826;DHT22;52586;-43.152;172.732;2023-07-29T10:46:15;14.10;57.40
65826;DHT22;52586;-43.152;172.732;2023-07-29T10:48:54;14.10;57.40
65826;DHT22;52586;-43.152;172.732;2023-07-29T10:51:27;14.10;57.40
65826;DHT22;52586;-43.152;172.732;2023-07-29T10:54:02;14.10;57.40
65826;DHT22;52586;-43.152;172.732;2023-07-29T10:56:33;14.10;57.50
65826;DHT22;52586;-43.152;172.732;2023-07-29T10:59:31;14.10;58.00
65826;DHT22;52586;-43.152;172.732;2023-07-29T11:02:15;14.10;57.50
65826;DHT22;52586;-43.152;172.732;2023-07-29T11:04:49;14.10;57.40
65826;DHT22;52586;-43.152;172.732;2023-07-29T11:07:26;14.10;58.10
65826;DHT22;52586;-43.152;172.732;2023-07-29T11:09:58;14.10;57.40
65826;DHT22;52586;-43.152;172.732;2023-07-29T11:12:43;14.10;57.40
65826;DHT22;52586;-43.152;172.732;2023-07-29T11:15:19;14.00;57.40
65826;DHT22;52586;-43.152;172.732;2023-07-29T11:17:53;14.00;57.40
65826;DHT22;52586;-43.152;172.732;2023-07-29T11:20:24;14.00;57.40
65826;DHT22;52586;-43.152;172.732;2023-07-29T11:22:56;14.00;57.40
65826;DHT22;52586;-43.152;172.732;2023-07-29T11:25:28;14.00;57.50
65826;DHT22;52586;-43.152;172.732;2023-07-29T11:27:59;14.00;57.40
65826;DHT22;52586;-43.152;172.732;2023-07-29T11:30:30;13.90;57.40
65826;DHT22;52586;-43.152;172.732;2023-07-29T11:33:03;13.90;57.40
65826;DHT22;52586;-43.152;172.732;2023-07-29T11:35:34;13.90;57.40
65826;DHT22;52586;-43.152;172.732;2023-07-29T11:38:05;13.90;57.40
65826;DHT22;52586;-43.152;172.732;2023-07-29T11:40:36;13.90;57.40
65826;DHT22;52586;-43.152;172.732;2023-07-29T11:43:06;13.90;57.40
65826;DHT22;52586;-43.152;172.732;2023-07-29T11:45:37;13.90;57.40
65826;DHT22;52586;-43.152;172.732;2023-07-29T11:48:10;13.90;57.40
65826;DHT22;52586;-43.152;172.732;2023-07-29T11:50:41;13.90;57.40
65826;DHT22;52586;-43.152;172.732;2023-07-29T11:53:12;13.90;58.00
65826;DHT22;52586;-43.152;172.732;2023-07-29T11:55:43;13.90;57.40
65826;DHT22;52586;-43.152;172.732;2023-07-29T11:58:13;13.80;57.30
65826;DHT22;52586;-43.152;172.732;2023-07-29T12:00:46;13.90;57.40
65826;DHT22;52586;-43.152;172.732;2023-07-29T12:03:18;13.90;57.40
65826;DHT22;52586;-43.152;172.732;2023-07-29T12:05:49;13.80;57.40
65826;DHT22;52586;-43.152;172.732;2023-07-29T12:08:20;13.80;57.40
65826;DHT22;52586;-43.152;172.732;2023-07-29T12:10:51;13.80;57.40
65826;DHT22;52586;-43.152;172.732;2023-07-29T12:13:25;13.80;57.30
65826;DHT22;52586;-43.152;172.732;2023-07-29T12:16:02;13.70;57.30
65826;DHT22;52586;-43.152;172.732;2023-07-29T12:18:37;13.80;57.40
65826;DHT22;52586;-43.152;172.732;2023-07-29T12:21:07;13.70;57.40
65826;DHT22;52586;-43.152;172.732;2023-07-29T12:23:38;13.70;57.40
65826;DHT22;52586;-43.152;172.732;2023-07-29T12:26:09;13.70;57.40
65826;DHT22;52586;-43.152;172.732;2023-07-29T12:28:39;13.70;57.40
65826;DHT22;52586;-43.152;172.732;2023-07-29T12:31:14;13.80;57.40
65826;DHT22;52586;-43.152;172.732;2023-07-29T12:33:47;13.70;57.40
65826;DHT22;52586;-43.152;172.732;2023-07-29T12:36:18;13.70;57.40
65826;DHT22;52586;-43.152;172.732;2023-07-29T12:38:49;13.70;57.40
65826;DHT22;52586;-43.152;172.732;2023-07-29T12:41:19;13.70;57.30
65826;DHT22;52586;-43.152;172.732;2023-07-29T12:43:50;13.70;57.30
65826;DHT22;52586;-43.152;172.732;2023-07-29T12:46:21;13.70;57.40
65826;DHT22;52586;-43.152;172.732;2023-07-29T12:48:53;13.70;57.40
65826;DHT22;52586;-43.152;172.732;2023-07-29T12:51:24;13.60;57.30
65826;DHT22;52586;-43.152;172.732;2023-07-29T12:53:54;13.60;57.30
65826;DHT22;52586;-43.152;172.732;2023-07-29T12:56:25;13.60;57.30
65826;DHT22;52586;-43.152;172.732;2023-07-29T12:58:56;13.60;57.30
65826;DHT22;52586;-43.152;172.732;2023-07-29T13:01:26;13.60;57.40
65826;DHT22;52586;-43.152;172.732;2023-07-29T13:03:59;13.60;57.40
65826;DHT22;52586;-43.152;172.732;2023-07-29T13:06:29;13.60;57.40
65826;DHT22;52586;-43.152;172.732;2023-07-29T13:09:00;13.60;57.40
65826;DHT22;52586;-43.152;172.732;2023-07-29T13:11:31;13.60;57.40
65826;DHT22;52586;-43.152;172.732;2023-07-29T13:14:02;13.60;57.40
65826;DHT22;52586;-43.152;172.732;2023-07-29T13:16:32;13.60;57.40
65826;DHT22;52586;-43.152;172.732;2023-07-29T13:19:05;13.60;57.40
65826;DHT22;52586;-43.152;172.732;2023-07-29T13:21:36;13.50;57.30
65826;DHT22;52586;-43.152;172.732;2023-07-29T13:24:06;13.60;57.30
65826;DHT22;52586;-43.152;172.732;2023-07-29T13:26:37;13.50;57.30
65826;DHT22;52586;-43.152;172.732;2023-07-29T13:29:07;13.50;57.30
65826;DHT22;52586;-43.152;172.732;2023-07-29T13:31:38;13.50;57.30
65826;DHT22;52586;-43.152;172.732;2023-07-29T13:34:10;13.50;57.20
65826;DHT22;52586;-43.152;172.732;2023-07-29T13:36:42;13.50;57.30
65826;DHT22;52586;-43.152;172.732;2023-07-29T13:39:12;13.50;57.30
65826;DHT22;52586;-43.152;172.732;2023-07-29T13:41:43;13.40;57.20
65826;DHT22;52586;-43.152;172.732;2023-07-29T13:44:13;13.40;57.30
65826;DHT22;52586;-43.152;172.732;2023-07-29T13:46:44;13.40;57.30
65826;DHT22;52586;-43.152;172.732;2023-07-29T13:49:17;13.40;57.30
65826;DHT22;52586;-43.152;172.732;2023-07-29T13:51:47;13.40;57.30
65826;DHT22;52586;-43.152;172.732;2023-07-29T13:54:18;13.40;57.30
65826;DHT22;52586;-43.152;172.732;2023-07-29T13:56:49;13.40;57.20
65826;DHT22;52586;-43.152;172.732;2023-07-29T13:59:21;13.40;57.20
65826;DHT22;52586;-43.152;172.732;2023-07-29T14:01:52;13.40;57.20
65826;DHT22;52586;-43.152;172.732;2023-07-29T14:04:24;13.30;57.10
65826;DHT22;52586;-43.152;172.732;2023-07-29T14:06:55;13.30;57.20
65826;DHT22;52586;-43.152;172.732;2023-07-29T14:09:25;13.30;57.10
65826;DHT22;52586;-43.152;172.732;2023-07-29T14:11:56;13.30;57.10
65826;DHT22;52586;-43.152;172.732;2023-07-29T14:14:27;13.30;57.10
65826;DHT22;52586;-43.152;172.732;2023-07-29T14:16:57;13.30;57.20
65826;DHT22;52586;-43.152;172.732;2023-07-29T14:19:30;13.30;57.20
65826;DHT22;52586;-43.152;172.732;2023-07-29T14:22:01;13.30;57.20
65826;DHT22;52586;-43.152;172.732;2023-07-29T14:24:32;13.30;57.20
65826;DHT22;52586;-43.152;172.732;2023-07-29T14:27:02;13.20;57.20
65826;DHT22;52586;-43.152;172.732;2023-07-29T14:29:33;13.20;57.20
65826;DHT22;52586;-43.152;172.732;2023-07-29T14:32:04;13.20;57.20
65826;DHT22;52586;-43.152;172.732;2023-07-29T14:34:37;13.20;57.40
65826;DHT22;52586;-43.152;172.732;2023-07-29T14:37:07;13.20;57.10
65826;DHT22;52586;-43.152;172.732;2023-07-29T14:39:38;13.20;57.10
65826;DHT22;52586;-43.152;172.732;2023-07-29T14:42:08;13.20;57.10
65826;DHT22;52586;-43.152;172.732;2023-07-29T14:44:39;13.20;57.10
65826;DHT22;52586;-43.152;172.732;2023-07-29T14:47:10;13.20;57.10
65826;DHT22;52586;-43.152;172.732;2023-07-29T14:49:43;13.10;57.10
65826;DHT22;52586;-43.152;172.732;2023-07-29T14:52:13;13.10;57.10
65826;DHT22;52586;-43.152;172.732;2023-07-29T14:54:44;13.10;57.10
65826;DHT22;52586;-43.152;172.732;2023-07-29T14:57:15;13.10;57.10
65826;DHT22;52586;-43.152;172.732;2023-07-29T14:59:47;13.10;57.10
65826;DHT22;52586;-43.152;172.732;2023-07-29T15:02:18;13.10;57.10
65826;DHT22;52586;-43.152;172.732;2023-07-29T15:04:52;13.10;57.10
65826;DHT22;52586;-43.152;172.732;2023-07-29T15:07:22;13.10;57.20
65826;DHT22;52586;-43.152;172.732;2023-07-29T15:09:53;13.10;57.10
65826;DHT22;52586;-43.152;172.732;2023-07-29T15:12:24;13.10;57.10
65826;DHT22;52586;-43.152;172.732;2023-07-29T15:14:54;13.00;57.10